Time;durP1;ratioP1;P1;durP2;ratioP2;P2;SDS_P1;SDS_P2;PMS_P1;PMS_P2;Temp;Humidity;BMP_temperature;BMP_pressure;BME280_temperature;BME280_humidity;BME280_pressure;Samples;Min_cycle;Max_cycle;Signal;HPM_P1;HPM_P2
2021/10/30 00:02:00;;;;;;;1.20;1.10;;;20.40;49.50;;;24.30;33.11;100531.19;5075145;28;20052;-7
2021/10/30 00:04:26;;;;;;;2.78;1.70;;;20.40;49.50;;;24.30;32.94;100524.00;5075146;28;20044;-7
2021/10/30 00:06:54;;;;;;;1.40;1.30;;;20.40;49.50;;;24.30;33.01;100532.03;5075135;28;20090;-8
2021/10/30 00:09:21;;;;;;;1.50;1.40;;;20.40;49.50;;;24.30;33.06;100532.03;5075216;28;20051;-8
2021/10/30 00:11:46;;;;;;;1.40;1.30;;;20.40;49.50;;;24.33;32.93;100533.63;5075570;28;20049;-8
2021/10/30 00:14:12;;;;;;;1.50;1.40;;;20.40;49.50;;;24.30;33.08;100520.50;5075131;28;20059;-8
2021/10/30 00:16:38;;;;;;;1.55;1.27;;;20.40;49.50;;;24.33;32.92;100525.59;5075080;28;20515;-7
2021/10/30 00:19:05;;;;;;;1.50;1.33;;;20.40;49.40;;;24.29;33.06;100525.00;5074830;28;20131;-7
2021/10/30 00:21:31;;;;;;;1.83;1.50;;;20.40;49.50;;;24.31;32.88;100527.56;5074942;28;20469;-8
2021/10/30 00:23:58;;;;;;;1.13;1.02;;;20.40;49.50;;;24.29;32.88;100533.03;5074832;28;20060;-7
2021/10/30 00:26:24;;;;;;;1.40;1.30;;;20.40;49.50;;;24.31;32.96;100538.25;5074832;28;20488;-8
2021/10/30 00:28:49;;;;;;;1.83;1.52;;;20.40;49.50;;;24.29;33.11;100532.16;5075138;28;20093;-8
2021/10/30 00:31:16;;;;;;;1.63;1.40;;;20.40;49.50;;;24.31;32.95;100549.78;5074669;28;20109;-8
2021/10/30 00:33:42;;;;;;;1.85;1.63;;;20.40;49.50;;;24.30;33.05;100548.06;5074709;28;20084;-8
2021/10/30 00:36:08;;;;;;;1.50;1.20;;;20.40;49.40;;;24.31;32.96;100547.09;5074496;28;20049;-8
2021/10/30 00:38:35;;;;;;;1.70;1.30;;;20.40;49.50;;;24.30;32.85;100544.53;5075027;28;20396;-8
2021/10/30 00:41:09;;;;;;;1.60;1.50;;;20.40;49.50;;;24.29;33.13;100559.75;5075196;28;20060;-8
2021/10/30 00:43:36;;;;;;;1.40;1.15;;;20.40;49.40;;;24.29;32.95;100554.41;5056611;28;20044;-8
2021/10/30 00:46:02;;;;;;;1.70;1.42;;;20.40;49.50;;;24.29;33.00;100564.22;5056516;28;20382;-8
2021/10/30 00:48:28;;;;;;;1.50;1.40;;;20.40;49.30;;;24.31;33.05;100557.78;5073683;28;20044;-8
2021/10/30 00:50:58;;;;;;;1.45;1.20;;;20.40;49.30;;;24.28;33.10;100563.38;5074513;28;20044;-8
2021/10/30 00:53:31;;;;;;;1.83;1.60;;;20.40;49.50;;;24.28;33.05;100562.53;5074341;28;20080;-8
2021/10/30 00:56:02;;;;;;;2.55;1.58;;;20.40;49.60;;;24.29;32.90;100553.53;5074337;28;20056;-8
2021/10/30 00:58:36;;;;;;;1.85;1.45;;;20.40;49.50;;;24.30;32.98;100563.25;5056813;28;20045;-7
2021/10/30 01:01:05;;;;;;;1.63;1.52;;;20.40;49.50;;;24.29;32.97;100553.53;5074032;28;20044;-7
2021/10/30 01:03:32;;;;;;;1.50;1.40;;;20.40;49.50;;;24.27;33.24;100560.81;5074250;28;20055;-8
2021/10/30 01:05:58;;;;;;;1.80;1.42;;;20.30;49.60;;;24.25;33.08;100555.59;5073766;28;20044;-7
2021/10/30 01:08:24;;;;;;;1.73;1.40;;;20.30;49.60;;;24.25;33.05;100554.75;5074142;28;20446;-8
2021/10/30 01:10:51;;;;;;;1.55;1.40;;;20.40;49.50;;;24.26;33.17;100559.09;5074276;28;20159;-7
2021/10/30 01:13:17;;;;;;;1.52;1.30;;;20.40;49.50;;;24.27;33.12;100561.66;5074201;28;20123;-7
2021/10/30 01:15:44;;;;;;;1.30;1.20;;;20.40;49.50;;;24.26;33.03;100564.44;5072823;28;20135;-7
2021/10/30 01:18:12;;;;;;;1.58;1.48;;;20.40;49.60;;;24.26;33.11;100567.13;5072550;28;20049;-7
2021/10/30 01:20:37;;;;;;;1.50;1.40;;;20.40;49.50;;;24.24;32.92;100561.94;5074240;28;20095;-8
2021/10/30 01:23:03;;;;;;;1.60;1.38;;;20.40;49.50;;;24.25;32.97;100571.63;5074121;28;20512;-7
2021/10/30 01:25:29;;;;;;;2.10;1.35;;;20.40;49.50;;;24.25;32.87;100565.44;5074155;28;20053;-7
2021/10/30 01:27:58;;;;;;;1.35;1.25;;;20.40;49.50;;;24.26;33.00;100577.81;5074196;28;20397;-7
2021/10/30 01:30:24;;;;;;;2.15;1.45;;;20.40;49.60;;;24.26;32.95;100570.66;5073908;28;20044;-7
2021/10/30 01:33:01;;;;;;;1.17;1.10;;;20.40;49.50;;;24.22;32.96;100564.72;5073954;28;20520;-7
2021/10/30 01:35:38;;;;;;;1.52;1.42;;;20.40;49.90;;;24.25;32.94;100571.63;5055884;28;20135;-7
2021/10/30 01:38:05;;;;;;;1.40;1.30;;;20.40;49.40;;;24.22;32.95;100562.06;5072729;28;20052;-7
2021/10/30 01:40:45;;;;;;;1.30;1.20;;;20.40;49.50;;;24.22;33.04;100559.38;5072585;28;20407;-8
2021/10/30 01:43:11;;;;;;;1.52;1.42;;;20.30;49.50;;;24.25;33.03;100560.09;5073945;28;20060;-7
2021/10/30 01:45:37;;;;;;;1.40;1.25;;;20.40;49.50;;;24.23;33.02;100553.03;5073865;28;20040;-7
2021/10/30 01:48:04;;;;;;;1.33;1.05;;;20.40;49.60;;;24.22;33.16;100554.03;5055839;28;20051;-7
2021/10/30 01:50:30;;;;;;;2.20;1.33;;;20.40;49.50;;;24.22;33.02;100553.16;5073539;28;20485;-8
2021/10/30 01:53:01;;;;;;;1.95;1.35;;;20.40;49.50;;;24.25;33.23;100555.59;5073510;28;20571;-8
2021/10/30 01:55:31;;;;;;;1.60;1.40;;;20.40;49.50;;;24.21;33.15;100549.66;5073437;28;20045;-7
2021/10/30 01:57:56;;;;;;;1.30;1.20;;;20.30;49.50;;;24.25;32.91;100560.94;5073390;28;20048;-8
2021/10/30 02:00:22;;;;;;;1.70;1.60;;;20.30;49.50;;;24.25;32.89;100562.78;5073259;28;20048;-8
2021/10/30 02:02:48;;;;;;;2.30;1.40;;;20.40;49.50;;;24.22;32.93;100561.19;5073967;28;20040;-8
2021/10/30 02:05:14;;;;;;;1.50;1.30;;;20.30;49.50;;;24.20;33.06;100553.28;5073389;28;20048;-8
2021/10/30 02:07:41;;;;;;;1.60;1.50;;;20.30;49.50;;;24.23;33.15;100561.06;5071971;28;20048;-7
2021/10/30 02:10:09;;;;;;;2.50;1.60;;;20.30;49.50;;;24.19;32.94;100546.28;5073627;28;20059;-7
2021/10/30 02:12:34;;;;;;;1.88;1.30;;;20.30;49.60;;;24.22;33.18;100555.84;5073294;28;20562;-7
2021/10/30 02:15:01;;;;;;;1.38;1.27;;;20.30;49.50;;;24.23;33.01;100560.22;5073279;28;20060;-8
2021/10/30 02:17:27;;;;;;;1.88;1.42;;;20.30;49.50;;;24.24;33.03;100551.25;5073037;28;20500;-7
2021/10/30 02:19:53;;;;;;;1.27;1.17;;;20.30;49.60;;;24.21;33.15;100540.81;5073104;28;20068;-8
2021/10/30 02:22:18;;;;;;;2.00;1.50;;;20.30;50.00;;;24.22;33.02;100545.16;5073026;28;20059;-8
2021/10/30 02:24:44;;;;;;;1.17;1.10;;;20.30;49.50;;;24.20;33.01;100547.94;5073040;28;20097;-8
2021/10/30 02:27:10;;;;;;;1.40;1.30;;;20.40;49.50;;;24.22;33.01;100550.50;5073003;28;20102;-7
2021/10/30 02:29:36;;;;;;;2.38;1.30;;;20.40;49.50;;;24.20;33.03;100550.63;5072878;28;20186;-7
2021/10/30 02:32:03;;;;;;;1.52;1.38;;;20.30;49.50;;;24.19;33.13;100543.59;5072873;28;20123;-8
2021/10/30 02:34:29;;;;;;;1.65;1.10;;;20.30;49.40;;;24.21;33.00;100547.00;5073137;28;20049;-8
2021/10/30 02:36:55;;;;;;;1.50;1.40;;;20.30;49.50;;;24.22;33.00;100547.81;5073233;28;20059;-8
2021/10/30 02:39:21;;;;;;;1.40;1.30;;;20.30;49.50;;;24.22;33.14;100537.13;5072841;28;20071;-8
2021/10/30 02:41:47;;;;;;;1.52;1.42;;;20.30;49.50;;;24.21;33.05;100535.47;5072990;28;20386;-7
2021/10/30 02:44:13;;;;;;;1.58;1.48;;;20.30;49.40;;;24.21;32.95;100540.81;5072840;28;20094;-7
2021/10/30 02:46:39;;;;;;;1.55;1.30;;;20.30;49.60;;;24.20;33.15;100536.41;5072701;28;20052;-7
2021/10/30 02:49:05;;;;;;;1.00;1.00;;;20.30;49.50;;;24.19;33.09;100540.94;5071845;28;20094;-7
2021/10/30 02:51:31;;;;;;;1.75;1.60;;;20.30;49.50;;;24.19;32.96;100532.91;5072709;28;20504;-8
2021/10/30 02:53:59;;;;;;;1.30;1.13;;;20.30;49.50;;;24.19;33.15;100532.91;5072719;28;20136;-7
2021/10/30 02:56:25;;;;;;;1.40;1.30;;;20.30;49.50;;;24.17;33.04;100526.84;5072484;28;20098;-8
2021/10/30 02:58:51;;;;;;;1.60;1.50;;;20.30;49.60;;;24.17;33.06;100526.84;5072932;28;21285;-7
2021/10/30 03:01:16;;;;;;;1.52;1.42;;;20.30;49.50;;;24.17;33.05;100521.50;5072978;28;20484;-7
2021/10/30 03:03:42;;;;;;;1.70;1.52;;;20.30;49.60;;;24.19;32.97;100516.88;5070652;28;20052;-7
2021/10/30 03:06:08;;;;;;;1.83;1.45;;;20.30;49.60;;;24.18;33.02;100506.31;5072299;28;20056;-8
2021/10/30 03:08:35;;;;;;;1.90;1.40;;;20.30;49.50;;;24.18;32.95;100500.97;5072200;28;20056;-7
2021/10/30 03:11:02;;;;;;;1.73;1.42;;;20.30;49.50;;;24.16;33.19;100503.78;5076326;28;20452;-7
2021/10/30 03:13:29;;;;;;;1.42;1.33;;;20.30;49.50;;;24.16;32.90;100508.28;5079127;28;20048;-7
2021/10/30 03:15:55;;;;;;;1.40;1.30;;;20.30;49.50;;;24.17;33.19;100513.50;5078938;28;20511;-7
2021/10/30 03:18:22;;;;;;;1.40;1.30;;;20.30;49.60;;;24.17;33.19;100525.97;5079358;28;20044;-8
2021/10/30 03:20:48;;;;;;;2.35;1.20;;;20.30;49.50;;;24.16;33.01;100521.63;5078888;28;20040;-7
2021/10/30 03:23:15;;;;;;;1.67;1.45;;;20.30;49.50;;;24.15;33.12;100510.06;5079013;28;20056;-8
2021/10/30 03:25:41;;;;;;;1.75;1.40;;;20.30;49.60;;;24.15;33.05;100503.91;5078906;28;20040;-8
2021/10/30 03:28:07;;;;;;;2.90;1.67;;;20.30;49.60;;;24.12;33.04;100509.47;5079215;28;20397;-8
2021/10/30 03:30:32;;;;;;;1.70;1.40;;;20.30;49.60;;;24.16;33.22;100513.63;5079318;28;20527;-8
2021/10/30 03:32:59;;;;;;;1.67;1.40;;;20.20;49.70;;;24.14;33.29;100508.41;5076730;28;20073;-8
2021/10/30 03:35:25;;;;;;;1.75;1.50;;;20.10;49.90;;;24.12;33.03;100514.81;5078849;28;20049;-7
2021/10/30 03:37:51;;;;;;;1.98;1.33;;;20.10;50.00;;;24.12;33.13;100518.34;5078873;28;20048;-8
2021/10/30 03:40:17;;;;;;;1.98;1.52;;;20.00;50.00;;;24.11;33.25;100521.16;5078765;28;20477;-8
2021/10/30 03:42:43;;;;;;;1.65;1.35;;;20.00;50.00;;;24.11;33.13;100513.16;5078743;28;20040;-8
2021/10/30 03:45:10;;;;;;;2.15;1.70;;;20.10;50.00;;;24.10;33.14;100501.59;5078686;28;20102;-7
2021/10/30 03:47:36;;;;;;;1.25;1.17;;;20.10;50.00;;;24.12;33.32;100499.63;5078915;28;20472;-8
2021/10/30 03:50:03;;;;;;;1.50;1.40;;;20.10;50.00;;;24.13;33.11;100503.19;5078479;28;20056;-7
2021/10/30 03:52:29;;;;;;;1.58;1.48;;;20.10;49.90;;;24.13;33.28;100497.84;5078662;28;20500;-7
2021/10/30 03:54:54;;;;;;;1.83;1.50;;;20.20;49.90;;;24.17;33.13;100510.81;5078726;28;20404;-7
2021/10/30 03:57:21;;;;;;;2.13;1.50;;;20.20;49.80;;;24.15;33.25;100507.41;5078532;28;20057;-7
2021/10/30 03:59:47;;;;;;;2.45;1.30;;;20.20;49.70;;;24.19;33.24;100508.00;5078910;28;20405;-7
2021/10/30 04:02:13;;;;;;;1.30;1.20;;;20.20;49.70;;;24.19;33.13;100516.00;5078526;28;20489;-8
2021/10/30 04:04:39;;;;;;;1.35;1.17;;;20.20;49.70;;;24.23;33.00;100525.50;5078552;28;20040;-7
2021/10/30 04:07:05;;;;;;;1.38;1.27;;;20.20;49.60;;;24.22;33.31;100524.66;5078657;28;20044;-7
2021/10/30 04:09:32;;;;;;;1.48;1.38;;;20.30;49.70;;;24.23;33.08;100515.66;5078181;28;20051;-8
2021/10/30 04:11:58;;;;;;;1.42;1.33;;;20.30;49.60;;;24.26;33.25;100516.38;5078729;28;20048;-7
2021/10/30 04:14:24;;;;;;;1.80;1.50;;;20.30;49.50;;;24.27;33.21;100518.91;5060835;28;20067;-7
2021/10/30 04:16:50;;;;;;;1.52;1.10;;;20.30;49.50;;;24.27;33.10;100510.06;5078577;28;20476;-7
2021/10/30 04:19:16;;;;;;;1.17;1.08;;;20.40;49.50;;;24.29;32.98;100505.44;5059129;28;20413;-7
2021/10/30 04:21:43;;;;;;;1.88;1.50;;;20.40;49.40;;;24.32;33.29;100494.50;5076774;28;20049;-7
2021/10/30 04:24:09;;;;;;;1.27;1.17;;;20.40;49.40;;;24.34;33.06;100497.88;5074412;28;20044;-7
2021/10/30 04:26:35;;;;;;;2.15;1.27;;;20.40;49.30;;;24.36;33.20;100503.97;5074876;28;20101;-7
2021/10/30 04:29:02;;;;;;;2.45;1.17;;;20.40;49.30;;;24.32;33.02;100492.66;5074839;28;20052;-7
2021/10/30 04:31:30;;;;;;;1.55;1.40;;;20.50;49.30;;;24.35;33.09;100502.25;5074868;28;20587;-8
2021/10/30 04:34:00;;;;;;;1.60;1.33;;;20.50;49.30;;;24.40;33.24;100508.91;5074845;28;20041;-7
2021/10/30 04:36:29;;;;;;;1.30;1.20;;;20.50;49.20;;;24.42;33.08;100511.47;5074795;28;20063;-8
2021/10/30 04:38:55;;;;;;;1.67;1.58;;;20.50;49.10;;;24.44;32.89;100506.00;5075299;28;20060;-8
2021/10/30 04:41:21;;;;;;;1.15;1.05;;;20.50;49.00;;;24.48;32.93;100508.31;5074372;28;20048;-8
2021/10/30 04:43:48;;;;;;;1.20;1.10;;;20.60;49.10;;;24.51;33.01;100510.72;5074911;28;20058;-7
2021/10/30 04:46:16;;;;;;;1.40;1.30;;;20.60;49.00;;;24.50;33.03;100506.34;5074400;28;20057;-7
2021/10/30 04:48:42;;;;;;;1.60;1.38;;;20.60;49.00;;;24.52;32.89;100504.38;5074443;28;20053;-7
2021/10/30 04:51:08;;;;;;;1.60;1.50;;;20.60;48.90;;;24.58;32.95;100511.94;5074432;28;20056;-7
2021/10/30 04:53:37;;;;;;;1.77;1.30;;;20.70;48.90;;;24.59;32.70;100516.31;5074414;28;20388;-8
2021/10/30 04:56:04;;;;;;;1.58;1.48;;;20.70;48.90;;;24.61;32.72;100513.53;5074510;28;20053;-7
2021/10/30 04:58:30;;;;;;;1.50;1.30;;;20.70;48.90;;;24.61;32.75;100513.53;5074408;28;20150;-8
2021/10/30 05:00:58;;;;;;;1.63;1.52;;;20.70;48.80;;;24.66;32.68;100524.69;5074321;28;20056;-7
2021/10/30 05:03:23;;;;;;;1.88;1.20;;;20.70;48.70;;;24.68;32.68;100533.41;5074430;28;20049;-8
2021/10/30 05:05:49;;;;;;;1.30;1.20;;;20.70;48.70;;;24.68;32.66;100527.22;5056630;28;20098;-8
2021/10/30 05:08:15;;;;;;;1.25;1.15;;;20.80;48.80;;;24.68;32.56;100524.56;5074121;28;20049;-9
2021/10/30 05:10:41;;;;;;;1.15;1.10;;;20.80;48.80;;;24.73;32.63;100528.53;5074858;28;20045;-8
2021/10/30 05:13:07;;;;;;;1.33;1.23;;;20.80;48.70;;;24.75;32.64;100512.34;5074298;28;20053;-7
2021/10/30 05:15:32;;;;;;;1.55;1.45;;;20.80;48.70;;;24.75;32.65;100488.28;5074598;28;20048;-7
2021/10/30 05:17:59;;;;;;;1.30;1.20;;;20.80;48.70;;;24.74;32.58;100482.13;5074143;28;20049;-7
2021/10/30 05:20:29;;;;;;;1.30;1.20;;;20.80;48.60;;;24.78;32.63;100496.06;5074067;28;20051;-7
2021/10/30 05:22:55;;;;;;;1.73;1.17;;;20.90;48.60;;;24.80;32.65;100502.13;5074493;28;20362;-7
2021/10/30 05:25:22;;;;;;;1.10;1.00;;;20.90;48.60;;;24.80;32.63;100504.81;5074313;28;20162;-7
2021/10/30 05:27:48;;;;;;;1.33;1.23;;;20.90;48.60;;;24.82;32.61;100505.50;5055971;28;20063;-7
2021/10/30 05:30:14;;;;;;;1.52;1.20;;;20.90;48.60;;;24.85;32.52;100518.63;5073958;28;20045;-7
2021/10/30 05:32:39;;;;;;;1.88;1.40;;;20.90;48.50;;;24.83;32.54;100511.72;5073869;28;20488;-7
2021/10/30 05:35:25;;;;;;;1.42;1.25;;;20.90;48.60;;;24.84;32.41;100506.25;5073689;28;20045;-7
2021/10/30 05:38:12;;;;;;;1.33;1.23;;;20.90;48.60;;;24.87;32.41;100505.13;5074279;28;20101;-7
2021/10/30 05:40:39;;;;;;;1.30;1.20;;;20.90;48.60;;;24.87;32.53;100500.63;5073968;28;20461;-8
2021/10/30 05:43:06;;;;;;;1.55;1.30;;;20.90;48.50;;;24.84;32.57;100500.91;5074061;28;20123;-8
2021/10/30 05:45:32;;;;;;;1.38;1.27;;;20.90;48.50;;;24.89;32.45;100503.16;5073700;28;20049;-7
2021/10/30 05:47:58;;;;;;;1.25;1.15;;;20.90;48.50;;;24.87;32.46;100483.75;5073478;28;20515;-7
2021/10/30 05:50:23;;;;;;;1.55;1.30;;;20.90;48.50;;;24.87;32.28;100492.59;5072372;28;20136;-7
2021/10/30 05:52:49;;;;;;;1.20;1.02;;;20.90;48.50;;;24.89;32.43;100493.34;5073643;28;20128;-8
2021/10/30 05:55:15;;;;;;;1.30;1.20;;;20.90;48.60;;;24.88;32.44;100501.50;5073510;28;20048;-7
2021/10/30 05:57:41;;;;;;;1.25;1.13;;;20.90;49.10;;;24.90;32.38;100513.75;5073351;28;20098;-7
2021/10/30 06:00:08;;;;;;;1.42;1.33;;;20.90;48.60;;;24.89;32.37;100500.50;5073708;28;20048;-8
2021/10/30 06:02:38;;;;;;;1.02;1.00;;;20.90;48.60;;;24.89;32.29;100492.47;5073529;28;20493;-7
2021/10/30 06:05:04;;;;;;;1.55;1.00;;;20.90;48.50;;;24.89;32.34;100493.34;5073294;28;20098;-7
2021/10/30 06:07:30;;;;;;;1.30;1.20;;;20.90;48.50;;;24.92;32.40;100510.94;5072305;28;20102;-8
2021/10/30 06:09:56;;;;;;;1.42;1.20;;;20.90;48.50;;;24.94;32.44;100506.31;5073253;28;20101;-8
2021/10/30 06:12:21;;;;;;;1.45;1.10;;;20.90;48.50;;;24.92;32.35;100503.75;5055260;28;20056;-7
2021/10/30 06:14:47;;;;;;;1.30;1.20;;;20.90;48.50;;;24.91;32.36;100506.59;5073193;28;20055;-7
2021/10/30 06:17:13;;;;;;;1.27;1.17;;;20.90;48.60;;;24.92;32.24;100511.78;5055176;28;20049;-8
2021/10/30 06:19:39;;;;;;;1.25;1.10;;;20.90;48.60;;;24.94;32.23;100511.66;5072942;28;20055;-8
2021/10/30 06:22:05;;;;;;;1.30;1.20;;;20.90;48.50;;;24.94;32.43;100501.81;5073057;28;20048;-8
2021/10/30 06:24:31;;;;;;;1.88;1.20;;;20.90;48.50;;;24.95;32.32;100492.81;5073412;28;20109;-8
2021/10/30 06:26:59;;;;;;;1.30;1.20;;;20.90;48.50;;;24.94;32.25;100498.28;5072930;28;20443;-8
2021/10/30 06:29:24;;;;;;;1.20;1.10;;;20.90;48.50;;;24.94;32.25;100496.47;5073073;28;20102;-8
2021/10/30 06:31:50;;;;;;;1.30;1.20;;;20.90;48.50;;;24.94;32.41;100480.44;5072964;28;20044;-7
2021/10/30 06:34:16;;;;;;;1.20;1.02;;;21.00;48.50;;;24.99;32.42;100492.53;5073030;28;20053;-8
2021/10/30 06:36:41;;;;;;;2.05;1.30;;;21.00;48.30;;;25.00;32.26;100483.56;5073135;28;20064;-7
2021/10/30 06:39:07;;;;;;;1.60;1.50;;;21.00;48.20;;;25.02;32.19;100485.09;5072910;28;20056;-7
2021/10/30 06:41:34;;;;;;;1.83;1.30;;;21.00;48.10;;;25.06;32.11;100489.22;5072824;28;20078;-8
2021/10/30 06:44:01;;;;;;;1.20;1.10;;;21.10;48.10;;;25.09;32.24;100494.31;5073434;28;20037;-7
2021/10/30 06:46:30;;;;;;;1.35;1.25;;;21.10;48.00;;;25.12;32.23;100502.06;5072201;28;20370;-7
2021/10/30 06:48:57;;;;;;;1.33;1.23;;;21.20;48.00;;;25.14;32.10;100491.22;5072768;28;20036;-8
2021/10/30 06:51:25;;;;;;;1.42;1.25;;;21.20;47.80;;;25.18;32.14;100494.53;5071402;28;20431;-8
2021/10/30 06:53:51;;;;;;;1.30;1.20;;;21.20;47.80;;;25.17;31.98;100488.28;5072593;28;20049;-7
2021/10/30 06:56:17;;;;;;;1.10;1.10;;;21.20;47.90;;;25.18;32.04;100484.66;5072815;28;20056;-8
2021/10/30 06:58:43;;;;;;;1.25;1.15;;;21.20;47.90;;;25.20;31.97;100481.84;5072479;28;20479;-7
2021/10/30 07:01:09;;;;;;;1.33;1.20;;;21.20;47.90;;;25.18;31.93;100492.69;5072495;28;20052;-8
2021/10/30 07:03:36;;;;;;;1.23;1.13;;;21.10;48.00;;;25.20;31.91;100496.06;5072320;28;20057;-7
2021/10/30 07:06:02;;;;;;;1.25;1.15;;;21.10;48.00;;;25.21;31.95;100491.56;5072474;28;20063;-7
2021/10/30 07:08:28;;;;;;;1.38;1.20;;;21.20;48.00;;;25.19;32.02;100477.47;5072361;28;20486;-7
2021/10/30 07:10:54;;;;;;;1.45;1.27;;;21.10;48.00;;;25.18;31.92;100481.13;5072950;28;20472;-7
2021/10/30 07:13:19;;;;;;;1.38;1.20;;;21.10;48.00;;;25.18;31.95;100483.81;5072813;28;20049;-7
2021/10/30 07:15:46;;;;;;;1.25;1.15;;;21.10;48.10;;;25.19;32.06;100482.81;5072444;28;20040;-7
2021/10/30 07:18:12;;;;;;;1.50;1.20;;;21.10;48.10;;;25.15;31.83;100474.22;5072381;28;20040;-7
2021/10/30 07:20:38;;;;;;;1.08;1.00;;;21.00;48.00;;;25.18;31.91;100468.59;5072275;28;20047;-8
2021/10/30 07:23:04;;;;;;;1.20;1.10;;;21.10;48.10;;;25.17;32.00;100471.41;5072282;28;20102;-7
2021/10/30 07:25:30;;;;;;;1.38;1.27;;;21.10;48.10;;;25.17;31.88;100461.53;5072528;28;20378;-7
2021/10/30 07:27:56;;;;;;;1.33;1.23;;;21.10;48.10;;;25.15;31.84;100450.97;5038630;28;20053;-8
2021/10/30 07:30:23;;;;;;;1.20;1.13;;;21.20;48.00;;;25.19;31.95;100464.94;5072441;28;20107;-7
2021/10/30 07:32:52;;;;;;;1.13;1.02;;;21.20;48.00;;;25.20;31.84;100458.59;5072090;28;20126;-7
2021/10/30 07:35:22;;;;;;;1.33;1.20;;;21.20;47.90;;;25.21;31.84;100459.44;5072180;28;20048;-8
2021/10/30 07:37:48;;;;;;;1.30;1.20;;;21.20;47.80;;;25.28;31.87;100482.06;5072102;28;20052;-7
2021/10/30 07:40:15;;;;;;;1.13;1.02;;;21.30;47.70;;;25.26;31.84;100463.47;5072115;28;20049;-8
2021/10/30 07:42:44;;;;;;;1.20;1.10;;;21.30;47.70;;;25.27;31.84;100464.31;5072118;28;20053;-8
2021/10/30 07:45:10;;;;;;;1.20;1.10;;;21.30;47.70;;;25.29;31.74;100465.00;5054073;28;20047;-7
2021/10/30 07:47:38;;;;;;;1.85;1.30;;;21.30;47.60;;;25.30;31.85;100456.03;5071650;28;20067;-7
2021/10/30 07:50:06;;;;;;;1.25;1.15;;;21.30;47.60;;;25.34;31.82;100460.09;5071909;28;20052;-7
2021/10/30 07:52:31;;;;;;;1.40;1.30;;;21.30;47.60;;;25.38;31.80;100460.72;5072006;28;20052;-8
2021/10/30 07:54:57;;;;;;;1.23;1.13;;;21.40;47.60;;;25.40;31.72;100464.94;5072144;28;20048;-8
2021/10/30 07:57:23;;;;;;;1.20;1.10;;;21.40;47.50;;;25.38;31.70;100452.69;5074165;28;20048;-7
2021/10/30 07:59:51;;;;;;;1.27;1.17;;;21.40;47.50;;;25.39;31.68;100457.88;5075641;28;20049;-7
2021/10/30 08:02:21;;;;;;;1.20;1.10;;;21.40;47.40;;;25.40;31.68;100467.63;5075415;28;20045;-7
2021/10/30 08:04:47;;;;;;;2.25;1.23;;;21.40;47.40;;;25.42;31.76;100468.31;5075264;28;20519;-8
2021/10/30 08:07:13;;;;;;;1.38;1.27;;;21.40;47.40;;;25.40;31.62;100456.06;5057619;28;20053;-8
2021/10/30 08:09:43;;;;;;;1.90;1.20;;;21.40;47.50;;;25.41;31.75;100449.72;5075162;28;20459;-7
2021/10/30 08:12:11;;;;;;;0.90;0.90;;;21.40;47.60;;;25.39;31.61;100439.16;5075386;28;20064;-8
2021/10/30 08:14:37;;;;;;;1.20;1.10;;;21.40;47.50;;;25.43;31.54;100437.06;5075358;28;20052;-8
2021/10/30 08:17:03;;;;;;;1.05;0.95;;;21.40;47.40;;;25.41;31.60;100436.34;5056892;28;20059;-7
2021/10/30 08:19:29;;;;;;;1.40;1.30;;;21.40;47.40;;;25.44;31.49;100436.06;5074722;28;20052;-8
2021/10/30 08:21:55;;;;;;;1.08;0.93;;;21.40;47.40;;;25.46;31.60;100447.47;5075317;28;20049;-7
2021/10/30 08:24:20;;;;;;;1.30;1.15;;;21.40;47.40;;;25.47;31.60;100451.88;5075055;28;20122;-7
2021/10/30 08:26:46;;;;;;;1.27;1.17;;;21.40;47.40;;;25.47;31.49;100450.03;5074908;28;20052;-8
2021/10/30 08:29:12;;;;;;;1.30;1.20;;;21.40;47.90;;;25.47;31.57;100454.53;5074719;28;20052;-8
2021/10/30 08:31:38;;;;;;;1.30;1.20;;;21.40;47.30;;;25.44;31.45;100438.75;5074946;28;20044;-8
2021/10/30 08:34:04;;;;;;;1.30;1.20;;;21.40;47.30;;;25.46;31.51;100442.13;5074864;28;20052;-8
2021/10/30 08:36:31;;;;;;;1.08;1.00;;;21.40;47.40;;;25.46;31.43;100451.03;5074684;28;20048;-7
2021/10/30 08:39:02;;;;;;;1.40;1.30;;;21.40;47.30;;;25.45;31.57;100446.66;5074689;28;20047;-8
2021/10/30 08:41:30;;;;;;;1.40;1.13;;;21.40;47.40;;;25.45;31.54;100441.28;5074840;28;20109;-7
2021/10/30 08:43:56;;;;;;;1.40;1.30;;;21.40;47.40;;;25.47;31.52;100441.16;5075302;28;20055;-8
2021/10/30 08:46:23;;;;;;;1.30;1.20;;;21.40;47.40;;;25.47;31.55;100446.50;5074279;28;20135;-7
2021/10/30 08:48:51;;;;;;;1.20;1.10;;;21.40;47.40;;;25.46;31.57;100455.50;5074543;28;20044;-8
2021/10/30 08:51:16;;;;;;;1.30;1.20;;;21.40;47.40;;;25.47;31.48;100454.53;5075008;28;20053;-7
2021/10/30 08:53:42;;;;;;;0.95;0.95;;;21.50;47.30;;;25.50;31.48;100446.25;5074366;28;20060;-8
2021/10/30 08:56:08;;;;;;;1.23;1.00;;;21.40;47.30;;;25.46;31.34;100442.13;5074117;28;20400;-8
2021/10/30 08:58:35;;;;;;;1.13;1.08;;;21.40;47.30;;;25.45;31.54;100433.25;5074330;28;20147;-7
2021/10/30 09:01:06;;;;;;;1.15;1.10;;;21.50;47.30;;;25.45;31.36;100437.78;5074338;28;20044;-7
2021/10/30 09:03:33;;;;;;;1.40;1.30;;;21.40;47.30;;;25.49;31.50;100445.41;5074597;28;20412;-8
2021/10/30 09:06:00;;;;;;;1.40;1.30;;;21.40;47.30;;;25.46;31.49;100436.78;5074231;28;20063;-7
2021/10/30 09:08:27;;;;;;;1.23;1.13;;;21.40;47.30;;;25.46;31.63;100434.09;5074066;28;20048;-8
2021/10/30 09:11:08;;;;;;;1.33;1.23;;;21.40;47.30;;;25.48;31.43;100432.16;5074326;28;20056;-7
2021/10/30 09:13:36;;;;;;;1.30;1.20;;;21.50;47.30;;;25.48;31.43;100434.84;5074075;28;20070;-7
2021/10/30 09:16:03;;;;;;;1.40;1.20;;;21.50;47.30;;;25.50;31.43;100430.19;5074007;28;20060;-7
2021/10/30 09:18:37;;;;;;;0.98;0.90;;;21.50;47.30;;;25.48;31.46;100424.13;5074420;28;20040;-7
2021/10/30 09:21:03;;;;;;;1.30;1.20;;;21.50;47.30;;;25.50;31.38;100428.34;5073929;28;20132;-7
2021/10/30 09:23:34;;;;;;;1.20;1.10;;;21.40;47.30;;;25.45;31.51;100419.88;5074095;28;20054;-7
2021/10/30 09:26:09;;;;;;;1.30;1.20;;;21.40;47.30;;;25.46;31.48;100426.06;5055837;28;20049;-7
2021/10/30 09:28:48;;;;;;;0.93;0.93;;;21.40;47.30;;;25.45;31.54;100419.03;5074199;28;20496;-7
2021/10/30 09:31:15;;;;;;;1.63;1.27;;;21.40;47.30;;;25.49;31.32;100423.13;5073776;28;20056;-8
2021/10/30 09:33:59;;;;;;;1.30;1.20;;;21.50;47.30;;;25.47;31.54;100419.75;5073658;28;20488;-7
2021/10/30 09:36:39;;;;;;;1.30;1.20;;;21.50;47.30;;;25.48;31.47;100421.44;5073486;28;20052;-8
2021/10/30 09:39:12;;;;;;;1.23;1.13;;;21.50;47.30;;;25.48;31.49;100416.94;5073753;28;20048;-8
2021/10/30 09:41:45;;;;;;;1.20;1.10;;;21.50;47.30;;;25.48;31.39;100413.41;5073794;28;20135;-8
2021/10/30 09:44:23;;;;;;;1.52;1.30;;;21.50;47.30;;;25.45;31.47;100398.47;5073750;28;20056;-8
2021/10/30 09:46:53;;;;;;;1.58;1.48;;;21.40;47.30;;;25.48;31.47;100405.38;5073700;28;20106;-7
2021/10/30 09:49:36;;;;;;;1.30;1.20;;;21.40;47.30;;;25.47;31.59;100398.34;5073850;28;20171;-8
2021/10/30 09:52:04;;;;;;;1.20;1.10;;;21.40;47.30;;;25.48;31.44;100403.56;5073993;28;20127;-7
2021/10/30 09:54:46;;;;;;;1.10;1.08;;;21.50;47.30;;;25.47;31.48;100401.00;5056059;28;20053;-8
2021/10/30 09:57:27;;;;;;;;;;;21.50;47.30;;;25.60;31.26;100398.09;5074270;28;20074;-7
2021/10/30 09:59:58;;;;;;;;;;;21.50;47.30;;;25.65;31.13;100395.84;5074026;28;19966;-8
2021/10/30 10:02:25;;;;;;;1.10;1.00;;;21.50;47.30;;;25.56;31.23;100392.19;5073513;28;19955;-7
2021/10/30 10:04:54;;;;;;;1.25;1.10;;;21.50;47.30;;;25.54;31.30;100398.63;5073309;28;20049;-7
2021/10/30 10:07:25;;;;;;;1.20;1.10;;;21.50;47.30;;;25.50;31.38;100385.53;5055315;28;20048;-8
2021/10/30 10:09:51;;;;;;;1.67;1.10;;;21.50;47.30;;;25.51;31.33;100389.06;5073675;28;20048;-7
2021/10/30 10:12:17;;;;;;;1.27;1.02;;;21.50;47.30;;;25.49;31.37;100386.53;5073289;28;20051;-7
2021/10/30 10:14:44;;;;;;;1.20;1.10;;;21.50;47.30;;;25.50;31.46;100384.69;5073317;28;20044;-7
2021/10/30 10:17:11;;;;;;;1.20;1.10;;;21.50;47.10;;;25.52;31.30;100374.69;5073186;28;20057;-7
2021/10/30 10:19:38;;;;;;;1.20;1.10;;;21.50;47.10;;;25.52;31.35;100380.88;5072264;28;20131;-7
2021/10/30 10:22:05;;;;;;;1.23;1.10;;;21.60;47.10;;;25.52;31.31;100380.88;5055007;28;20056;-7